sensor_id;sensor_type;location;lat;lon;timestamp;P1;durP1;ratioP1;P2;durP2;ratioP2
28335;SDS011;15592;53.656;7.276;2023-12-20T00:01:19;15.65;;;1.70;;
28335;SDS011;15592;53.656;7.276;2023-12-20T00:03:44;14.75;;;2.38;;
28335;SDS011;15592;53.656;7.276;2023-12-20T00:06:10;18.73;;;2.50;;
28335;SDS011;15592;53.656;7.276;2023-12-20T00:08:36;16.70;;;2.58;;
28335;SDS011;15592;53.656;7.276;2023-12-20T00:11:02;19.98;;;2.20;;
28335;SDS011;15592;53.656;7.276;2023-12-20T00:13:27;5.57;;;1.48;;
28335;SDS011;15592;53.656;7.276;2023-12-20T00:15:53;10.15;;;1.55;;
28335;SDS011;15592;53.656;7.276;2023-12-20T00:18:18;10.10;;;2.40;;
28335;SDS011;15592;53.656;7.276;2023-12-20T00:20:44;7.78;;;2.38;;
28335;SDS011;15592;53.656;7.276;2023-12-20T00:23:10;9.88;;;1.83;;
28335;SDS011;15592;53.656;7.276;2023-12-20T00:25:35;20.50;;;2.20;;
28335;SDS011;15592;53.656;7.276;2023-12-20T00:28:01;12.57;;;1.95;;
28335;SDS011;15592;53.656;7.276;2023-12-20T00:30:27;12.93;;;1.98;;
28335;SDS011;15592;53.656;7.276;2023-12-20T00:32:53;18.33;;;2.85;;
28335;SDS011;15592;53.656;7.276;2023-12-20T00:35:18;20.95;;;2.40;;
28335;SDS011;15592;53.656;7.276;2023-12-20T00:37:44;22.52;;;3.40;;
28335;SDS011;15592;53.656;7.276;2023-12-20T00:40:10;28.48;;;2.92;;
28335;SDS011;15592;53.656;7.276;2023-12-20T00:42:36;28.05;;;3.10;;
28335;SDS011;15592;53.656;7.276;2023-12-20T00:45:02;22.35;;;2.70;;
28335;SDS011;15592;53.656;7.276;2023-12-20T00:47:29;13.82;;;2.33;;
28335;SDS011;15592;53.656;7.276;2023-12-20T00:49:55;24.55;;;2.53;;
28335;SDS011;15592;53.656;7.276;2023-12-20T00:52:21;14.13;;;2.15;;
28335;SDS011;15592;53.656;7.276;2023-12-20T00:54:47;12.23;;;1.80;;
28335;SDS011;15592;53.656;7.276;2023-12-20T00:57:13;13.23;;;1.80;;
28335;SDS011;15592;53.656;7.276;2023-12-20T00:59:39;15.38;;;1.95;;
28335;SDS011;15592;53.656;7.276;2023-12-20T01:02:04;22.30;;;2.42;;
28335;SDS011;15592;53.656;7.276;2023-12-20T01:04:30;16.63;;;2.50;;
28335;SDS011;15592;53.656;7.276;2023-12-20T01:06:55;20.60;;;2.75;;
28335;SDS011;15592;53.656;7.276;2023-12-20T01:09:21;20.77;;;2.78;;
28335;SDS011;15592;53.656;7.276;2023-12-20T01:14:17;29.25;;;2.70;;
28335;SDS011;15592;53.656;7.276;2023-12-20T01:16:42;21.60;;;2.60;;
28335;SDS011;15592;53.656;7.276;2023-12-20T01:19:08;17.95;;;3.13;;
28335;SDS011;15592;53.656;7.276;2023-12-20T01:21:34;17.60;;;2.17;;
28335;SDS011;15592;53.656;7.276;2023-12-20T01:23:59;23.45;;;2.90;;
28335;SDS011;15592;53.656;7.276;2023-12-20T01:26:25;22.52;;;2.80;;
28335;SDS011;15592;53.656;7.276;2023-12-20T01:28:50;20.13;;;2.63;;
28335;SDS011;15592;53.656;7.276;2023-12-20T01:31:16;20.40;;;3.10;;
28335;SDS011;15592;53.656;7.276;2023-12-20T01:33:41;35.38;;;3.80;;
28335;SDS011;15592;53.656;7.276;2023-12-20T01:36:07;26.42;;;4.00;;
28335;SDS011;15592;53.656;7.276;2023-12-20T01:38:33;26.15;;;3.83;;
28335;SDS011;15592;53.656;7.276;2023-12-20T01:40:59;33.10;;;3.90;;
28335;SDS011;15592;53.656;7.276;2023-12-20T01:43:25;25.92;;;3.60;;
28335;SDS011;15592;53.656;7.276;2023-12-20T01:45:50;24.00;;;3.25;;
28335;SDS011;15592;53.656;7.276;2023-12-20T01:48:17;20.83;;;2.90;;
28335;SDS011;15592;53.656;7.276;2023-12-20T01:50:44;18.42;;;2.60;;
28335;SDS011;15592;53.656;7.276;2023-12-20T01:53:11;20.92;;;2.80;;
28335;SDS011;15592;53.656;7.276;2023-12-20T01:55:39;17.85;;;2.47;;
28335;SDS011;15592;53.656;7.276;2023-12-20T01:58:08;19.30;;;2.50;;
28335;SDS011;15592;53.656;7.276;2023-12-20T02:00:35;13.90;;;2.58;;
28335;SDS011;15592;53.656;7.276;2023-12-20T02:03:02;17.92;;;2.25;;
28335;SDS011;15592;53.656;7.276;2023-12-20T02:05:31;27.17;;;4.07;;
28335;SDS011;15592;53.656;7.276;2023-12-20T02:07:59;28.85;;;3.00;;
28335;SDS011;15592;53.656;7.276;2023-12-20T02:10:25;33.65;;;3.88;;
28335;SDS011;15592;53.656;7.276;2023-12-20T02:12:51;18.30;;;2.53;;
28335;SDS011;15592;53.656;7.276;2023-12-20T02:15:17;22.52;;;2.83;;
28335;SDS011;15592;53.656;7.276;2023-12-20T02:17:42;22.30;;;2.90;;
28335;SDS011;15592;53.656;7.276;2023-12-20T02:20:10;21.35;;;3.03;;
28335;SDS011;15592;53.656;7.276;2023-12-20T02:22:36;15.25;;;2.65;;
28335;SDS011;15592;53.656;7.276;2023-12-20T02:25:01;12.57;;;2.30;;
28335;SDS011;15592;53.656;7.276;2023-12-20T02:27:27;13.75;;;2.40;;
28335;SDS011;15592;53.656;7.276;2023-12-20T02:29:54;27.00;;;2.90;;
28335;SDS011;15592;53.656;7.276;2023-12-20T02:32:20;29.42;;;4.63;;
28335;SDS011;15592;53.656;7.276;2023-12-20T02:34:47;31.20;;;3.10;;
28335;SDS011;15592;53.656;7.276;2023-12-20T02:37:13;28.65;;;3.17;;
28335;SDS011;15592;53.656;7.276;2023-12-20T02:39:39;20.98;;;3.10;;
28335;SDS011;15592;53.656;7.276;2023-12-20T02:42:05;8.32;;;2.08;;
28335;SDS011;15592;53.656;7.276;2023-12-20T02:44:31;9.93;;;1.58;;
28335;SDS011;15592;53.656;7.276;2023-12-20T02:46:56;9.50;;;1.85;;
28335;SDS011;15592;53.656;7.276;2023-12-20T02:49:22;13.05;;;1.80;;
28335;SDS011;15592;53.656;7.276;2023-12-20T02:51:47;7.68;;;1.85;;
28335;SDS011;15592;53.656;7.276;2023-12-20T02:54:13;9.48;;;2.10;;
28335;SDS011;15592;53.656;7.276;2023-12-20T02:56:39;10.82;;;2.08;;
28335;SDS011;15592;53.656;7.276;2023-12-20T02:59:04;8.60;;;2.15;;
28335;SDS011;15592;53.656;7.276;2023-12-20T03:01:43;10.85;;;1.83;;
28335;SDS011;15592;53.656;7.276;2023-12-20T03:04:10;4.20;;;1.40;;
28335;SDS011;15592;53.656;7.276;2023-12-20T03:06:35;7.90;;;1.83;;
28335;SDS011;15592;53.656;7.276;2023-12-20T03:09:01;11.95;;;2.25;;
28335;SDS011;15592;53.656;7.276;2023-12-20T03:11:27;23.33;;;2.90;;
28335;SDS011;15592;53.656;7.276;2023-12-20T03:13:53;29.48;;;4.20;;
28335;SDS011;15592;53.656;7.276;2023-12-20T03:16:19;36.33;;;5.32;;
28335;SDS011;15592;53.656;7.276;2023-12-20T03:18:45;41.25;;;5.88;;
28335;SDS011;15592;53.656;7.276;2023-12-20T03:21:10;28.17;;;3.67;;
28335;SDS011;15592;53.656;7.276;2023-12-20T03:23:36;23.55;;;3.75;;
28335;SDS011;15592;53.656;7.276;2023-12-20T03:26:01;32.25;;;4.43;;
28335;SDS011;15592;53.656;7.276;2023-12-20T03:28:27;17.48;;;3.55;;
28335;SDS011;15592;53.656;7.276;2023-12-20T03:30:54;34.33;;;3.88;;
28335;SDS011;15592;53.656;7.276;2023-12-20T03:33:20;34.30;;;4.18;;
28335;SDS011;15592;53.656;7.276;2023-12-20T03:35:46;33.42;;;4.15;;
28335;SDS011;15592;53.656;7.276;2023-12-20T03:38:11;43.70;;;5.50;;
28335;SDS011;15592;53.656;7.276;2023-12-20T03:40:37;35.63;;;4.25;;
28335;SDS011;15592;53.656;7.276;2023-12-20T03:43:03;20.77;;;3.80;;
28335;SDS011;15592;53.656;7.276;2023-12-20T03:45:28;30.33;;;3.70;;
28335;SDS011;15592;53.656;7.276;2023-12-20T03:47:54;26.33;;;3.33;;
28335;SDS011;15592;53.656;7.276;2023-12-20T03:50:24;37.72;;;4.25;;
28335;SDS011;15592;53.656;7.276;2023-12-20T03:52:50;36.53;;;4.38;;
28335;SDS011;15592;53.656;7.276;2023-12-20T03:55:16;27.92;;;3.53;;
28335;SDS011;15592;53.656;7.276;2023-12-20T03:57:42;43.13;;;4.93;;
28335;SDS011;15592;53.656;7.276;2023-12-20T04:00:08;39.13;;;4.93;;
28335;SDS011;15592;53.656;7.276;2023-12-20T04:02:35;35.03;;;5.00;;
28335;SDS011;15592;53.656;7.276;2023-12-20T04:05:01;29.08;;;3.92;;
28335;SDS011;15592;53.656;7.276;2023-12-20T04:07:27;19.50;;;3.60;;
28335;SDS011;15592;53.656;7.276;2023-12-20T04:09:53;17.13;;;3.22;;
28335;SDS011;15592;53.656;7.276;2023-12-20T04:12:18;11.88;;;3.25;;
28335;SDS011;15592;53.656;7.276;2023-12-20T04:14:44;13.07;;;2.33;;
28335;SDS011;15592;53.656;7.276;2023-12-20T04:17:09;10.35;;;1.83;;
28335;SDS011;15592;53.656;7.276;2023-12-20T04:19:35;6.53;;;1.80;;
28335;SDS011;15592;53.656;7.276;2023-12-20T04:22:00;11.40;;;2.05;;
28335;SDS011;15592;53.656;7.276;2023-12-20T04:24:26;33.42;;;3.92;;
28335;SDS011;15592;53.656;7.276;2023-12-20T04:26:52;29.55;;;3.92;;
28335;SDS011;15592;53.656;7.276;2023-12-20T04:29:17;25.70;;;3.42;;
28335;SDS011;15592;53.656;7.276;2023-12-20T04:31:43;22.45;;;3.30;;
28335;SDS011;15592;53.656;7.276;2023-12-20T04:34:08;20.40;;;2.75;;
28335;SDS011;15592;53.656;7.276;2023-12-20T04:36:34;14.70;;;2.88;;
28335;SDS011;15592;53.656;7.276;2023-12-20T04:39:00;17.20;;;2.85;;
28335;SDS011;15592;53.656;7.276;2023-12-20T04:41:25;17.33;;;2.88;;
28335;SDS011;15592;53.656;7.276;2023-12-20T04:43:52;11.43;;;2.13;;
28335;SDS011;15592;53.656;7.276;2023-12-20T04:46:18;8.68;;;1.77;;
28335;SDS011;15592;53.656;7.276;2023-12-20T04:48:43;9.43;;;2.38;;
28335;SDS011;15592;53.656;7.276;2023-12-20T04:51:09;14.30;;;2.30;;
28335;SDS011;15592;53.656;7.276;2023-12-20T04:53:34;28.15;;;3.75;;
28335;SDS011;15592;53.656;7.276;2023-12-20T04:56:00;29.45;;;4.03;;
28335;SDS011;15592;53.656;7.276;2023-12-20T04:58:26;25.10;;;4.03;;
28335;SDS011;15592;53.656;7.276;2023-12-20T05:00:51;15.55;;;3.10;;
28335;SDS011;15592;53.656;7.276;2023-12-20T05:03:17;23.52;;;3.28;;
28335;SDS011;15592;53.656;7.276;2023-12-20T05:05:43;21.45;;;3.78;;
28335;SDS011;15592;53.656;7.276;2023-12-20T05:08:08;17.05;;;2.70;;
28335;SDS011;15592;53.656;7.276;2023-12-20T05:10:34;20.85;;;3.33;;
28335;SDS011;15592;53.656;7.276;2023-12-20T05:13:01;36.90;;;4.60;;
28335;SDS011;15592;53.656;7.276;2023-12-20T05:15:27;32.55;;;4.90;;
28335;SDS011;15592;53.656;7.276;2023-12-20T05:17:52;35.22;;;4.38;;
28335;SDS011;15592;53.656;7.276;2023-12-20T05:20:18;43.20;;;5.38;;
28335;SDS011;15592;53.656;7.276;2023-12-20T05:22:43;35.15;;;4.97;;
28335;SDS011;15592;53.656;7.276;2023-12-20T05:25:10;36.40;;;4.50;;
28335;SDS011;15592;53.656;7.276;2023-12-20T05:27:38;30.35;;;4.00;;
28335;SDS011;15592;53.656;7.276;2023-12-20T05:30:03;27.58;;;3.63;;
28335;SDS011;15592;53.656;7.276;2023-12-20T05:32:29;28.73;;;3.90;;
28335;SDS011;15592;53.656;7.276;2023-12-20T05:34:56;31.23;;;4.55;;
28335;SDS011;15592;53.656;7.276;2023-12-20T05:37:21;22.45;;;3.70;;
28335;SDS011;15592;53.656;7.276;2023-12-20T05:39:47;27.88;;;3.88;;
28335;SDS011;15592;53.656;7.276;2023-12-20T05:42:12;14.55;;;2.83;;
28335;SDS011;15592;53.656;7.276;2023-12-20T05:44:38;17.80;;;3.28;;
28335;SDS011;15592;53.656;7.276;2023-12-20T05:47:04;20.42;;;3.20;;
28335;SDS011;15592;53.656;7.276;2023-12-20T05:49:29;23.13;;;3.15;;
28335;SDS011;15592;53.656;7.276;2023-12-20T05:51:55;36.65;;;4.70;;
28335;SDS011;15592;53.656;7.276;2023-12-20T05:54:20;42.35;;;4.22;;
28335;SDS011;15592;53.656;7.276;2023-12-20T05:56:47;23.17;;;3.70;;
28335;SDS011;15592;53.656;7.276;2023-12-20T05:59:12;17.73;;;3.10;;
28335;SDS011;15592;53.656;7.276;2023-12-20T06:01:38;20.00;;;2.85;;
28335;SDS011;15592;53.656;7.276;2023-12-20T06:04:04;21.40;;;2.92;;
28335;SDS011;15592;53.656;7.276;2023-12-20T06:06:33;42.53;;;5.10;;
28335;SDS011;15592;53.656;7.276;2023-12-20T06:08:58;34.03;;;5.03;;
28335;SDS011;15592;53.656;7.276;2023-12-20T06:11:24;51.83;;;6.38;;
28335;SDS011;15592;53.656;7.276;2023-12-20T06:13:50;37.50;;;4.88;;
28335;SDS011;15592;53.656;7.276;2023-12-20T06:16:18;35.83;;;5.15;;
28335;SDS011;15592;53.656;7.276;2023-12-20T06:18:43;26.70;;;4.03;;
28335;SDS011;15592;53.656;7.276;2023-12-20T06:21:09;19.75;;;3.95;;
28335;SDS011;15592;53.656;7.276;2023-12-20T06:23:37;25.23;;;4.07;;
28335;SDS011;15592;53.656;7.276;2023-12-20T06:26:03;42.05;;;5.85;;
28335;SDS011;15592;53.656;7.276;2023-12-20T06:28:29;43.28;;;4.35;;
28335;SDS011;15592;53.656;7.276;2023-12-20T06:30:55;42.80;;;5.38;;
28335;SDS011;15592;53.656;7.276;2023-12-20T06:33:21;42.25;;;5.20;;
28335;SDS011;15592;53.656;7.276;2023-12-20T06:35:48;36.75;;;5.53;;
28335;SDS011;15592;53.656;7.276;2023-12-20T06:38:14;46.58;;;5.85;;
28335;SDS011;15592;53.656;7.276;2023-12-20T06:40:39;34.47;;;4.53;;
28335;SDS011;15592;53.656;7.276;2023-12-20T06:43:17;32.00;;;3.97;;
28335;SDS011;15592;53.656;7.276;2023-12-20T06:45:42;52.33;;;5.40;;
28335;SDS011;15592;53.656;7.276;2023-12-20T06:48:08;46.22;;;5.25;;
28335;SDS011;15592;53.656;7.276;2023-12-20T06:50:36;37.63;;;4.28;;
28335;SDS011;15592;53.656;7.276;2023-12-20T06:56:01;43.03;;;5.53;;
28335;SDS011;15592;53.656;7.276;2023-12-20T06:58:27;33.20;;;4.82;;
28335;SDS011;15592;53.656;7.276;2023-12-20T07:01:25;40.35;;;5.85;;
28335;SDS011;15592;53.656;7.276;2023-12-20T07:03:51;35.20;;;5.13;;
28335;SDS011;15592;53.656;7.276;2023-12-20T07:06:16;38.90;;;5.05;;
28335;SDS011;15592;53.656;7.276;2023-12-20T07:08:42;35.03;;;4.95;;
28335;SDS011;15592;53.656;7.276;2023-12-20T07:11:07;46.78;;;5.85;;
28335;SDS011;15592;53.656;7.276;2023-12-20T07:13:36;42.03;;;6.20;;
28335;SDS011;15592;53.656;7.276;2023-12-20T07:16:02;44.30;;;5.13;;
28335;SDS011;15592;53.656;7.276;2023-12-20T07:18:28;48.08;;;7.03;;
28335;SDS011;15592;53.656;7.276;2023-12-20T07:20:54;44.08;;;6.22;;
28335;SDS011;15592;53.656;7.276;2023-12-20T07:23:20;39.08;;;6.57;;
28335;SDS011;15592;53.656;7.276;2023-12-20T07:25:49;42.50;;;5.50;;
28335;SDS011;15592;53.656;7.276;2023-12-20T07:28:15;41.33;;;6.28;;
28335;SDS011;15592;53.656;7.276;2023-12-20T07:30:42;39.17;;;5.30;;
28335;SDS011;15592;53.656;7.276;2023-12-20T07:33:08;46.22;;;5.35;;
28335;SDS011;15592;53.656;7.276;2023-12-20T07:35:34;33.72;;;5.18;;
28335;SDS011;15592;53.656;7.276;2023-12-20T07:38:00;33.33;;;4.70;;
28335;SDS011;15592;53.656;7.276;2023-12-20T07:40:27;40.63;;;5.32;;
28335;SDS011;15592;53.656;7.276;2023-12-20T07:42:52;24.63;;;4.95;;
28335;SDS011;15592;53.656;7.276;2023-12-20T07:45:21;23.70;;;4.38;;
28335;SDS011;15592;53.656;7.276;2023-12-20T07:47:46;22.17;;;4.15;;
28335;SDS011;15592;53.656;7.276;2023-12-20T07:50:12;20.58;;;3.30;;
28335;SDS011;15592;53.656;7.276;2023-12-20T07:52:38;32.38;;;4.82;;
28335;SDS011;15592;53.656;7.276;2023-12-20T07:55:03;45.22;;;5.53;;
28335;SDS011;15592;53.656;7.276;2023-12-20T07:57:29;28.00;;;3.90;;
28335;SDS011;15592;53.656;7.276;2023-12-20T07:59:55;17.45;;;2.75;;
28335;SDS011;15592;53.656;7.276;2023-12-20T08:02:21;16.98;;;2.55;;
28335;SDS011;15592;53.656;7.276;2023-12-20T08:04:46;25.00;;;2.83;;
28335;SDS011;15592;53.656;7.276;2023-12-20T08:07:12;18.77;;;3.17;;
28335;SDS011;15592;53.656;7.276;2023-12-20T08:09:38;17.17;;;2.28;;
28335;SDS011;15592;53.656;7.276;2023-12-20T08:12:03;16.48;;;2.67;;
28335;SDS011;15592;53.656;7.276;2023-12-20T08:14:29;23.38;;;2.35;;
28335;SDS011;15592;53.656;7.276;2023-12-20T08:16:55;14.00;;;2.35;;
28335;SDS011;15592;53.656;7.276;2023-12-20T08:19:20;17.63;;;2.53;;
28335;SDS011;15592;53.656;7.276;2023-12-20T08:21:46;16.08;;;2.10;;
28335;SDS011;15592;53.656;7.276;2023-12-20T08:24:12;16.45;;;2.20;;
28335;SDS011;15592;53.656;7.276;2023-12-20T08:26:37;17.27;;;2.30;;
28335;SDS011;15592;53.656;7.276;2023-12-20T08:29:06;9.30;;;1.50;;
28335;SDS011;15592;53.656;7.276;2023-12-20T08:31:40;8.13;;;1.60;;
28335;SDS011;15592;53.656;7.276;2023-12-20T08:34:09;5.85;;;1.02;;
28335;SDS011;15592;53.656;7.276;2023-12-20T08:36:36;4.70;;;1.40;;
28335;SDS011;15592;53.656;7.276;2023-12-20T08:39:02;8.88;;;1.20;;
28335;SDS011;15592;53.656;7.276;2023-12-20T08:41:34;6.75;;;1.00;;
28335;SDS011;15592;53.656;7.276;2023-12-20T08:44:00;4.38;;;1.15;;
28335;SDS011;15592;53.656;7.276;2023-12-20T08:46:26;6.03;;;1.23;;
28335;SDS011;15592;53.656;7.276;2023-12-20T08:48:51;3.72;;;1.00;;
28335;SDS011;15592;53.656;7.276;2023-12-20T08:51:20;6.55;;;1.35;;
28335;SDS011;15592;53.656;7.276;2023-12-20T08:53:47;5.28;;;1.25;;
28335;SDS011;15592;53.656;7.276;2023-12-20T08:56:14;9.50;;;2.47;;
28335;SDS011;15592;53.656;7.276;2023-12-20T08:58:39;6.63;;;1.05;;
28335;SDS011;15592;53.656;7.276;2023-12-20T09:01:05;7.50;;;1.45;;
28335;SDS011;15592;53.656;7.276;2023-12-20T09:03:31;6.38;;;1.00;;
28335;SDS011;15592;53.656;7.276;2023-12-20T09:05:57;5.68;;;0.85;;
28335;SDS011;15592;53.656;7.276;2023-12-20T09:08:22;3.25;;;1.10;;
28335;SDS011;15592;53.656;7.276;2023-12-20T09:10:48;4.80;;;0.90;;
28335;SDS011;15592;53.656;7.276;2023-12-20T09:13:13;4.70;;;0.70;;
28335;SDS011;15592;53.656;7.276;2023-12-20T09:15:39;1.88;;;0.75;;
28335;SDS011;15592;53.656;7.276;2023-12-20T09:18:05;3.80;;;0.80;;
28335;SDS011;15592;53.656;7.276;2023-12-20T09:20:31;6.03;;;1.15;;
28335;SDS011;15592;53.656;7.276;2023-12-20T09:22:56;3.40;;;0.98;;
28335;SDS011;15592;53.656;7.276;2023-12-20T09:25:22;4.60;;;0.93;;
28335;SDS011;15592;53.656;7.276;2023-12-20T09:27:48;8.45;;;1.08;;
28335;SDS011;15592;53.656;7.276;2023-12-20T09:30:14;2.78;;;1.00;;
28335;SDS011;15592;53.656;7.276;2023-12-20T09:32:39;3.90;;;1.02;;
28335;SDS011;15592;53.656;7.276;2023-12-20T09:35:05;4.53;;;1.08;;
28335;SDS011;15592;53.656;7.276;2023-12-20T09:37:31;5.50;;;1.45;;
28335;SDS011;15592;53.656;7.276;2023-12-20T09:39:57;6.07;;;1.40;;
28335;SDS011;15592;53.656;7.276;2023-12-20T09:42:36;6.65;;;1.50;;
28335;SDS011;15592;53.656;7.276;2023-12-20T09:45:15;9.45;;;1.35;;
28335;SDS011;15592;53.656;7.276;2023-12-20T09:47:43;5.82;;;1.30;;
28335;SDS011;15592;53.656;7.276;2023-12-20T09:50:10;6.38;;;1.58;;
28335;SDS011;15592;53.656;7.276;2023-12-20T09:52:36;13.07;;;2.00;;
28335;SDS011;15592;53.656;7.276;2023-12-20T09:55:05;9.23;;;2.45;;
28335;SDS011;15592;53.656;7.276;2023-12-20T10:00:56;8.60;;;1.50;;
28335;SDS011;15592;53.656;7.276;2023-12-20T10:03:25;13.40;;;2.00;;
28335;SDS011;15592;53.656;7.276;2023-12-20T10:05:54;11.60;;;1.55;;
28335;SDS011;15592;53.656;7.276;2023-12-20T10:23:58;7.15;;;1.30;;
28335;SDS011;15592;53.656;7.276;2023-12-20T10:26:26;7.43;;;1.30;;
28335;SDS011;15592;53.656;7.276;2023-12-20T10:28:59;10.23;;;1.75;;
28335;SDS011;15592;53.656;7.276;2023-12-20T10:33:55;9.73;;;1.65;;
28335;SDS011;15592;53.656;7.276;2023-12-20T10:36:23;12.10;;;1.60;;
28335;SDS011;15592;53.656;7.276;2023-12-20T10:38:51;9.65;;;1.80;;
28335;SDS011;15592;53.656;7.276;2023-12-20T10:41:18;8.88;;;1.88;;
28335;SDS011;15592;53.656;7.276;2023-12-20T10:43:51;8.57;;;1.60;;
28335;SDS011;15592;53.656;7.276;2023-12-20T10:46:18;10.55;;;1.88;;
28335;SDS011;15592;53.656;7.276;2023-12-20T10:48:44;11.35;;;2.10;;
28335;SDS011;15592;53.656;7.276;2023-12-20T10:53:41;10.40;;;2.10;;
28335;SDS011;15592;53.656;7.276;2023-12-20T10:56:07;8.00;;;1.73;;
28335;SDS011;15592;53.656;7.276;2023-12-20T10:58:35;9.25;;;2.10;;
28335;SDS011;15592;53.656;7.276;2023-12-20T11:01:06;9.43;;;1.95;;
28335;SDS011;15592;53.656;7.276;2023-12-20T11:03:35;8.82;;;1.55;;
28335;SDS011;15592;53.656;7.276;2023-12-20T11:06:08;7.00;;;1.58;;
28335;SDS011;15592;53.656;7.276;2023-12-20T11:08:49;8.38;;;1.70;;
28335;SDS011;15592;53.656;7.276;2023-12-20T11:11:28;6.07;;;1.80;;
28335;SDS011;15592;53.656;7.276;2023-12-20T11:14:15;6.80;;;1.60;;
28335;SDS011;15592;53.656;7.276;2023-12-20T11:16:47;3.25;;;1.40;;
28335;SDS011;15592;53.656;7.276;2023-12-20T11:19:13;10.25;;;1.70;;
28335;SDS011;15592;53.656;7.276;2023-12-20T11:21:39;5.88;;;1.70;;
28335;SDS011;15592;53.656;7.276;2023-12-20T11:24:05;18.13;;;3.20;;
28335;SDS011;15592;53.656;7.276;2023-12-20T11:26:31;17.00;;;2.90;;
28335;SDS011;15592;53.656;7.276;2023-12-20T11:31:59;11.35;;;2.45;;
28335;SDS011;15592;53.656;7.276;2023-12-20T11:34:32;13.80;;;2.33;;
28335;SDS011;15592;53.656;7.276;2023-12-20T11:37:01;13.63;;;2.03;;
28335;SDS011;15592;53.656;7.276;2023-12-20T11:39:28;9.10;;;2.05;;
28335;SDS011;15592;53.656;7.276;2023-12-20T11:41:55;5.55;;;1.95;;
28335;SDS011;15592;53.656;7.276;2023-12-20T11:44:22;10.95;;;2.15;;
28335;SDS011;15592;53.656;7.276;2023-12-20T11:46:50;9.35;;;1.98;;
28335;SDS011;15592;53.656;7.276;2023-12-20T11:49:15;7.38;;;1.92;;
28335;SDS011;15592;53.656;7.276;2023-12-20T11:51:41;9.00;;;1.80;;
28335;SDS011;15592;53.656;7.276;2023-12-20T11:54:07;6.13;;;1.58;;
28335;SDS011;15592;53.656;7.276;2023-12-20T11:56:34;5.32;;;1.67;;
28335;SDS011;15592;53.656;7.276;2023-12-20T11:59:01;7.25;;;2.13;;
28335;SDS011;15592;53.656;7.276;2023-12-20T12:01:26;13.00;;;2.08;;
28335;SDS011;15592;53.656;7.276;2023-12-20T12:04:07;19.73;;;3.10;;
28335;SDS011;15592;53.656;7.276;2023-12-20T12:06:33;8.70;;;2.28;;
28335;SDS011;15592;53.656;7.276;2023-12-20T12:08:59;12.57;;;2.88;;
28335;SDS011;15592;53.656;7.276;2023-12-20T12:11:25;15.95;;;2.80;;
28335;SDS011;15592;53.656;7.276;2023-12-20T12:13:50;10.88;;;2.58;;
28335;SDS011;15592;53.656;7.276;2023-12-20T12:16:19;11.63;;;2.28;;
28335;SDS011;15592;53.656;7.276;2023-12-20T12:18:46;14.98;;;2.67;;
28335;SDS011;15592;53.656;7.276;2023-12-20T12:21:20;13.40;;;1.65;;
28335;SDS011;15592;53.656;7.276;2023-12-20T12:23:46;7.43;;;1.90;;
28335;SDS011;15592;53.656;7.276;2023-12-20T12:26:12;7.65;;;2.35;;
28335;SDS011;15592;53.656;7.276;2023-12-20T12:28:39;6.15;;;1.48;;
28335;SDS011;15592;53.656;7.276;2023-12-20T12:31:06;12.35;;;1.80;;
28335;SDS011;15592;53.656;7.276;2023-12-20T12:33:32;6.20;;;1.50;;
28335;SDS011;15592;53.656;7.276;2023-12-20T12:35:57;7.03;;;1.45;;
28335;SDS011;15592;53.656;7.276;2023-12-20T12:38:24;9.48;;;1.92;;
28335;SDS011;15592;53.656;7.276;2023-12-20T12:40:50;5.15;;;1.70;;
28335;SDS011;15592;53.656;7.276;2023-12-20T12:43:18;8.63;;;1.52;;
28335;SDS011;15592;53.656;7.276;2023-12-20T12:45:44;8.27;;;1.45;;
28335;SDS011;15592;53.656;7.276;2023-12-20T12:48:09;5.25;;;1.30;;
28335;SDS011;15592;53.656;7.276;2023-12-20T12:50:35;5.90;;;1.50;;
28335;SDS011;15592;53.656;7.276;2023-12-20T12:53:01;6.57;;;1.33;;
28335;SDS011;15592;53.656;7.276;2023-12-20T12:55:27;7.20;;;1.40;;
28335;SDS011;15592;53.656;7.276;2023-12-20T12:57:53;5.15;;;1.50;;
28335;SDS011;15592;53.656;7.276;2023-12-20T13:00:19;6.75;;;1.52;;
28335;SDS011;15592;53.656;7.276;2023-12-20T13:02:45;8.27;;;1.67;;
28335;SDS011;15592;53.656;7.276;2023-12-20T13:05:10;9.70;;;2.10;;
28335;SDS011;15592;53.656;7.276;2023-12-20T13:07:36;8.18;;;1.73;;
28335;SDS011;15592;53.656;7.276;2023-12-20T13:10:02;6.03;;;1.50;;
28335;SDS011;15592;53.656;7.276;2023-12-20T13:12:29;4.90;;;1.60;;
28335;SDS011;15592;53.656;7.276;2023-12-20T13:14:54;6.95;;;1.48;;
28335;SDS011;15592;53.656;7.276;2023-12-20T13:17:20;10.68;;;1.98;;
28335;SDS011;15592;53.656;7.276;2023-12-20T13:19:45;8.98;;;1.55;;
28335;SDS011;15592;53.656;7.276;2023-12-20T13:22:11;8.55;;;1.73;;
28335;SDS011;15592;53.656;7.276;2023-12-20T13:24:37;5.28;;;1.70;;
28335;SDS011;15592;53.656;7.276;2023-12-20T13:27:02;7.63;;;1.50;;
28335;SDS011;15592;53.656;7.276;2023-12-20T13:29:28;6.38;;;1.45;;
28335;SDS011;15592;53.656;7.276;2023-12-20T13:31:54;8.45;;;1.90;;
28335;SDS011;15592;53.656;7.276;2023-12-20T13:34:19;6.78;;;1.70;;
28335;SDS011;15592;53.656;7.276;2023-12-20T13:36:46;6.93;;;1.88;;
28335;SDS011;15592;53.656;7.276;2023-12-20T13:39:12;6.45;;;1.25;;
28335;SDS011;15592;53.656;7.276;2023-12-20T13:41:38;4.35;;;1.42;;
28335;SDS011;15592;53.656;7.276;2023-12-20T13:44:04;3.85;;;1.50;;
28335;SDS011;15592;53.656;7.276;2023-12-20T13:46:30;7.75;;;1.50;;
28335;SDS011;15592;53.656;7.276;2023-12-20T13:48:56;6.32;;;1.30;;
28335;SDS011;15592;53.656;7.276;2023-12-20T13:51:22;6.50;;;1.75;;
28335;SDS011;15592;53.656;7.276;2023-12-20T13:53:47;6.05;;;1.88;;
28335;SDS011;15592;53.656;7.276;2023-12-20T13:56:13;10.57;;;1.75;;
28335;SDS011;15592;53.656;7.276;2023-12-20T13:58:40;4.30;;;1.60;;
28335;SDS011;15592;53.656;7.276;2023-12-20T14:01:06;6.95;;;1.50;;
28335;SDS011;15592;53.656;7.276;2023-12-20T14:03:33;5.13;;;1.90;;
28335;SDS011;15592;53.656;7.276;2023-12-20T14:05:59;5.07;;;1.30;;
28335;SDS011;15592;53.656;7.276;2023-12-20T14:08:26;5.85;;;1.40;;
28335;SDS011;15592;53.656;7.276;2023-12-20T14:10:52;3.20;;;1.17;;
28335;SDS011;15592;53.656;7.276;2023-12-20T14:13:18;5.38;;;1.50;;
28335;SDS011;15592;53.656;7.276;2023-12-20T14:15:44;4.85;;;1.55;;
28335;SDS011;15592;53.656;7.276;2023-12-20T14:18:09;12.23;;;1.92;;
28335;SDS011;15592;53.656;7.276;2023-12-20T14:20:35;8.13;;;1.60;;
28335;SDS011;15592;53.656;7.276;2023-12-20T14:23:01;9.30;;;1.67;;
28335;SDS011;15592;53.656;7.276;2023-12-20T14:25:28;7.53;;;1.70;;
28335;SDS011;15592;53.656;7.276;2023-12-20T14:27:53;7.07;;;1.75;;
28335;SDS011;15592;53.656;7.276;2023-12-20T14:30:19;7.25;;;1.60;;
28335;SDS011;15592;53.656;7.276;2023-12-20T14:32:45;5.80;;;1.42;;
28335;SDS011;15592;53.656;7.276;2023-12-20T14:35:12;4.55;;;1.42;;
28335;SDS011;15592;53.656;7.276;2023-12-20T14:37:38;4.28;;;1.42;;
28335;SDS011;15592;53.656;7.276;2023-12-20T14:40:06;4.35;;;1.25;;
28335;SDS011;15592;53.656;7.276;2023-12-20T14:45:00;6.95;;;1.30;;
28335;SDS011;15592;53.656;7.276;2023-12-20T14:47:26;3.40;;;1.15;;
28335;SDS011;15592;53.656;7.276;2023-12-20T14:49:52;3.78;;;1.15;;
28335;SDS011;15592;53.656;7.276;2023-12-20T14:52:18;3.22;;;0.93;;
28335;SDS011;15592;53.656;7.276;2023-12-20T14:54:48;3.67;;;0.80;;
28335;SDS011;15592;53.656;7.276;2023-12-20T14:57:13;2.38;;;1.20;;
28335;SDS011;15592;53.656;7.276;2023-12-20T14:59:39;4.50;;;1.25;;
28335;SDS011;15592;53.656;7.276;2023-12-20T15:02:04;6.68;;;1.00;;
28335;SDS011;15592;53.656;7.276;2023-12-20T15:04:30;2.33;;;1.02;;
28335;SDS011;15592;53.656;7.276;2023-12-20T15:06:56;4.88;;;1.23;;
28335;SDS011;15592;53.656;7.276;2023-12-20T15:09:23;3.00;;;1.00;;
28335;SDS011;15592;53.656;7.276;2023-12-20T15:11:49;3.50;;;1.17;;